Huvudsida
METAR-TAF:

METAR-TAF

Flygplatser :

Yap, Mikronesien

Yap International Airport

latitud: 09-29N, longitud: 138-05E, höjd: 28 m

Aktuellt väderrapport

Denna rapport gjordes för 8 minuter sedan, klockan 00:50 UTC
Vind 3 kt varierande vindriktning
Temperatur 28°C
Fuktighet 79%
Tryck 1010 hPa
Sikt: 19.3 km
Få moln på en höjd av 1700 ft
Brutna moln på en höjd av 13000 ft
Brutna moln på en höjd av 30000 ft

METAR: PTYA 200050Z VRB03KT 12SM FEW017 BKN130 BKN300 28/24 A2982 RMK SLP100 T02770239

Tid: 10:58 (00:58 UTC)

Väderprognos

Denna rapport gjordes för 1 timme och 30 minuter sedan, klockan 23:28 UTC
Prognos gäller från 20 kl. 00 UTC till 20 kl. 24 UTC
Vind 7 kt från ost/nordost
Sikt: 10 km
Spridda moln på en höjd av 1600 ft
Spridda moln på en höjd av 5000 ft
skurar i närheten

TAF: PTYA 192328Z 2000/2024 07007KT P6SM VCSH SCT016 SCT050

Aktuella väderrapporter och prognoser från 4000 flygplatser (METAR- och TAF-rapporter).

De tillgängliga stationerna syns som gula och röda prickar på kartan.

För musen över prickarna för att se namnen på stationerna.

Klicka sedan för att få väderrapporter och prognoser.

För att ändra kartan: Klicka på de gröna knapparna med ett svart kors på för att zooma in; den gröna knappen med ett streck på för att zooma ut; eller på de gröna pilarna för angränsande kartor.


METAR-TAF: